Terminal Aerodrome Forecast
Issued by NWS

Home | Current Version | Previous Version | Text Only | Print | Product List | Glossary On
Versions: 1 2 3 4 5 6 7 8 9 10 11 12 13 14 15 16 17 18 19 20 21 22 23 24 25 26 27 28 29 30 31 32 33 34 35 36
000
FTUS41 KCTP 172333
TAFJST
TAF
KJST 172333Z 1800/1824 20007KT P6SM -SHRA BKN035 OVC070
      TEMPO 1800/1803 3SM -SHRA BR OVC015
     FM180300 23007KT 4SM BR VCSH OVC015
     FM180600 23006KT 1SM -DZ BR OVC007
     FM181500 24010KT 3SM BR OVC010=

USA.gov is the U.S. government's official web portal to all federal, state and local government web resources and services.